Ely, MN

9:08 AM CDT on May 30, 2017 (GMT -0500)
Ely near the school | | Change Station

Elev 1483 ft 47.90 °N, 91.86 °W | Updated 1 minute ago

Overcast
Overcast
45.2 °F
Feels Like 45 °F
N
3.0
Wind Variable Wind from SW

Today
High -- | Low -- °F
--% Chance of Precip.
Yesterday
High -- | Low -- °F
Precip. -- in
Pressure 29.77 in
Visibility 2.5 miles
Clouds Mostly Cloudy 600 ft
Overcast 1300 ft
Windchill 45 °F
Dew Point 44 °F
Humidity 98%
Rainfall 0.00 in
Snow Depth Not available.
5:13 AM 8:56 PM
Waxing Crescent, 30% visible
METAR KELO 301353Z AUTO 27006KT 2 1/2SM -DZ BKN006 OVC013 07/06 A2977 RMK AO2
Pressure 29.77 in
Visibility 2.5 miles
Clouds Mostly Cloudy 600 ft
Overcast 1300 ft
Windchill 45 °F
Dew Point 44 °F
Humidity 98%
Rainfall 0.00 in
Snow Depth Not available.
5:13 AM 8:56 PM
Waxing Crescent, 30% visible
METAR KELO 301353Z AUTO 27006KT 2 1/2SM -DZ BKN006 OVC013 07/06 A2977 RMK AO2

Get Severe Weather Alerts

Thanks for signing up!

Be on the lookout for a verification email in your inbox.

You'll start receiving the daily forecast at 6 AM.

×

10-Day Weather Forecast

Almanac

Astronomy

May. 30, 2017 Rise Set
Actual Time
Civil Twilight
Nautical Twilight
Astronomical Twilight
Moon
Length of Visible Light
Length of Day
Tomorrow will be .
, % of the Moon is Illuminated

Today's Extremes

State Highs State Lows

Community

WunderPhotos

Category 6

Welcome to Category 6. This is the collective home for Weather Underground's featured writeups by Dr. Jeff Masters (right), Bob Henson (left), Chris Burt, and other regular contributors.

Nearby

Air Quality

  Air Quality AQ Index Pollutant
Not available.

Snow Depth

Station Depth Elevation

Earthquake Activity

City Distance Mag. Time & Date
Minimum magnitude displayed is 2.5.

Coastal Water Temperatures

Place Temperature

Stations

Nearby Weather Stations

Station Location Temp. Windchill Dew Point Humidity Wind Precip. Elev Updated Type
                   

Watches & Warnings

There are currently no watches in effect.